Frankfort, ME

3:12 PM EDT on April 27, 2015 (GMT -0400)
Mosquito Mountain | | Change Station
CLOSE
Current Station
Personal Weather Station
Location: Frankfort, ME
Elevation: 204 ft
Nearby Weather Stations

Elev 204 ft 44.59 °N, 68.87 °W | Updated 4 minutes ago

Overcast
Overcast
48.4 °F
Feels Like 45 °F
N
8.3
Wind Variable Wind from NE

Today
High -- | Low -- °F
--% Chance of Precip.
Yesterday
High -- | Low -- °F
Precip. -- in
5:32 AM 7:35 PM
Waxing Gibbous, 67% visible
Pressure 29.48 in
Visibility 8.0 miles
Clouds Scattered Clouds 2500 ft
Mostly Cloudy 3700 ft
Mostly Cloudy 4800 ft
Windchill 45 °F
Dew Point 46 °F
Humidity 92%
Rainfall 0.05 in
Snow Depth Not available.
UV 4 out of 12
Pollen 8.00 out of 12
Air Quality Not available.
Flu Activity Regional
METAR KBGR 271853Z 01016G24KT 8SM SCT025 BKN037 BKN048 10/07 A2948

More Conditions Fewer Conditions

Pressure 29.48 in
Visibility 8.0 miles
Clouds Scattered Clouds 2500 ft
Mostly Cloudy 3700 ft
Mostly Cloudy 4800 ft
Windchill 45 °F
Dew Point 46 °F
Humidity 92%
Rainfall 0.05 in
Snow Depth Not available.
UV 4 out of 12
Pollen 8.00 out of 12
Air Quality Not available.
Flu Activity Regional
METAR KBGR 271853Z 01016G24KT 8SM SCT025 BKN037 BKN048 10/07 A2948

More Conditions Fewer Conditions

10-Day Weather Forecast

Almanac

Astronomy

Apr. 27, 2015 Rise Set
Actual Time
Civil Twilight
Nautical Twilight
Astronomical Twilight
Moon
Length of Visible Light
Length of Day
Tomorrow will be .
, % of the Moon is Illuminated

Today's Extremes

State Highs State Lows

Community

WunderPhotos

Upload Photos

1,817,409 photos uploaded!

WunderBlogs® & News

Nearby

Air Quality

  Air Quality AQ Index Pollutant
Not available.

Snow Depth

Station Depth Elevation

Earthquake Activity

City Distance Mag. Time & Date
Minimum magnitude displayed is 2.5.

Coastal Water Temperatures

Place Temperature

Stations

Nearby Weather Stations

Station Location Temp. Windchill Dew Point Humidity Wind Precip. Elev Updated Type